sensor_id;sensor_type;location;lat;lon;timestamp;P1;durP1;ratioP1;P2;durP2;ratioP2
793;SDS011;380;48.738;9.214;2022-12-18T00:02:15;14.10;;;11.70;;
793;SDS011;380;48.738;9.214;2022-12-18T00:04:41;15.27;;;13.23;;
793;SDS011;380;48.738;9.214;2022-12-18T00:07:07;13.63;;;11.17;;
793;SDS011;380;48.738;9.214;2022-12-18T00:09:33;24.10;;;12.30;;
793;SDS011;380;48.738;9.214;2022-12-18T00:11:59;10.77;;;9.67;;
793;SDS011;380;48.738;9.214;2022-12-18T00:14:25;14.07;;;12.80;;
793;SDS011;380;48.738;9.214;2022-12-18T00:16:51;16.23;;;11.93;;
793;SDS011;380;48.738;9.214;2022-12-18T00:19:17;10.80;;;9.50;;
793;SDS011;380;48.738;9.214;2022-12-18T00:21:43;15.67;;;14.17;;
793;SDS011;380;48.738;9.214;2022-12-18T00:24:10;15.30;;;13.87;;
793;SDS011;380;48.738;9.214;2022-12-18T00:26:36;13.90;;;10.40;;
793;SDS011;380;48.738;9.214;2022-12-18T00:29:04;15.67;;;14.07;;
793;SDS011;380;48.738;9.214;2022-12-18T00:31:30;11.20;;;10.13;;
793;SDS011;380;48.738;9.214;2022-12-18T00:33:57;22.43;;;17.87;;
793;SDS011;380;48.738;9.214;2022-12-18T00:36:27;21.03;;;15.70;;
793;SDS011;380;48.738;9.214;2022-12-18T00:38:54;16.48;;;13.40;;
793;SDS011;380;48.738;9.214;2022-12-18T00:41:20;10.17;;;9.23;;
793;SDS011;380;48.738;9.214;2022-12-18T00:44:06;22.33;;;12.70;;
793;SDS011;380;48.738;9.214;2022-12-18T00:46:32;8.80;;;7.27;;
793;SDS011;380;48.738;9.214;2022-12-18T00:48:58;7.83;;;7.07;;
793;SDS011;380;48.738;9.214;2022-12-18T00:51:24;19.00;;;10.53;;
793;SDS011;380;48.738;9.214;2022-12-18T00:53:51;10.13;;;9.27;;
793;SDS011;380;48.738;9.214;2022-12-18T00:56:17;15.70;;;11.70;;
793;SDS011;380;48.738;9.214;2022-12-18T00:58:43;21.70;;;14.80;;
793;SDS011;380;48.738;9.214;2022-12-18T01:01:10;12.27;;;11.30;;
793;SDS011;380;48.738;9.214;2022-12-18T01:03:35;13.67;;;12.50;;
793;SDS011;380;48.738;9.214;2022-12-18T01:06:05;14.47;;;12.90;;
793;SDS011;380;48.738;9.214;2022-12-18T01:10:58;9.33;;;7.33;;
793;SDS011;380;48.738;9.214;2022-12-18T01:13:24;9.13;;;8.17;;
793;SDS011;380;48.738;9.214;2022-12-18T01:15:50;10.27;;;7.47;;
793;SDS011;380;48.738;9.214;2022-12-18T01:18:16;12.77;;;9.93;;
793;SDS011;380;48.738;9.214;2022-12-18T01:20:42;20.37;;;12.20;;
793;SDS011;380;48.738;9.214;2022-12-18T01:23:08;7.97;;;7.07;;
793;SDS011;380;48.738;9.214;2022-12-18T01:25:35;10.53;;;9.30;;
793;SDS011;380;48.738;9.214;2022-12-18T01:28:01;15.80;;;12.17;;
793;SDS011;380;48.738;9.214;2022-12-18T01:30:27;12.70;;;11.20;;
793;SDS011;380;48.738;9.214;2022-12-18T01:32:53;11.27;;;8.60;;
793;SDS011;380;48.738;9.214;2022-12-18T01:35:19;18.23;;;13.03;;
793;SDS011;380;48.738;9.214;2022-12-18T01:37:45;16.77;;;8.73;;
793;SDS011;380;48.738;9.214;2022-12-18T01:40:11;22.83;;;10.73;;
793;SDS011;380;48.738;9.214;2022-12-18T01:42:37;12.67;;;9.37;;
793;SDS011;380;48.738;9.214;2022-12-18T01:45:04;17.57;;;10.40;;
793;SDS011;380;48.738;9.214;2022-12-18T01:49:57;11.37;;;10.03;;
793;SDS011;380;48.738;9.214;2022-12-18T01:52:24;13.47;;;9.40;;
793;SDS011;380;48.738;9.214;2022-12-18T01:54:51;16.50;;;14.73;;
793;SDS011;380;48.738;9.214;2022-12-18T01:57:17;14.67;;;10.03;;
793;SDS011;380;48.738;9.214;2022-12-18T01:59:44;15.80;;;14.43;;
793;SDS011;380;48.738;9.214;2022-12-18T02:02:11;11.23;;;10.03;;
793;SDS011;380;48.738;9.214;2022-12-18T02:04:37;12.90;;;10.63;;
793;SDS011;380;48.738;9.214;2022-12-18T02:07:09;10.57;;;9.67;;
793;SDS011;380;48.738;9.214;2022-12-18T02:12:42;10.77;;;6.47;;
793;SDS011;380;48.738;9.214;2022-12-18T02:27:44;6.63;;;4.47;;
793;SDS011;380;48.738;9.214;2022-12-18T02:30:12;9.47;;;8.17;;
793;SDS011;380;48.738;9.214;2022-12-18T02:32:39;13.83;;;7.37;;
793;SDS011;380;48.738;9.214;2022-12-18T02:35:09;11.70;;;9.37;;
793;SDS011;380;48.738;9.214;2022-12-18T02:37:35;10.30;;;8.40;;
793;SDS011;380;48.738;9.214;2022-12-18T02:40:02;7.50;;;6.80;;
793;SDS011;380;48.738;9.214;2022-12-18T02:42:29;9.83;;;9.00;;
793;SDS011;380;48.738;9.214;2022-12-18T02:44:55;23.87;;;11.77;;
793;SDS011;380;48.738;9.214;2022-12-18T02:47:22;18.23;;;9.77;;
793;SDS011;380;48.738;9.214;2022-12-18T02:57:56;5.57;;;4.93;;
793;SDS011;380;48.738;9.214;2022-12-18T03:08:08;11.93;;;8.87;;
793;SDS011;380;48.738;9.214;2022-12-18T03:10:38;18.03;;;11.17;;
793;SDS011;380;48.738;9.214;2022-12-18T03:13:09;11.93;;;8.30;;
793;SDS011;380;48.738;9.214;2022-12-18T03:15:37;10.37;;;7.77;;
793;SDS011;380;48.738;9.214;2022-12-18T03:18:06;12.33;;;8.60;;
793;SDS011;380;48.738;9.214;2022-12-18T03:20:34;10.87;;;8.27;;
793;SDS011;380;48.738;9.214;2022-12-18T03:23:03;17.10;;;12.63;;
793;SDS011;380;48.738;9.214;2022-12-18T03:25:30;7.60;;;6.78;;
793;SDS011;380;48.738;9.214;2022-12-18T03:27:58;10.83;;;9.77;;
793;SDS011;380;48.738;9.214;2022-12-18T03:30:24;7.60;;;6.87;;
793;SDS011;380;48.738;9.214;2022-12-18T03:32:52;10.00;;;9.20;;
793;SDS011;380;48.738;9.214;2022-12-18T03:35:21;8.20;;;7.50;;
793;SDS011;380;48.738;9.214;2022-12-18T03:37:48;6.57;;;6.03;;
793;SDS011;380;48.738;9.214;2022-12-18T03:40:14;10.83;;;8.90;;
793;SDS011;380;48.738;9.214;2022-12-18T03:52:41;11.43;;;8.47;;
793;SDS011;380;48.738;9.214;2022-12-18T03:55:08;16.83;;;14.03;;
793;SDS011;380;48.738;9.214;2022-12-18T03:57:35;13.70;;;6.97;;
793;SDS011;380;48.738;9.214;2022-12-18T04:00:04;8.83;;;8.10;;
793;SDS011;380;48.738;9.214;2022-12-18T04:02:30;8.23;;;7.63;;
793;SDS011;380;48.738;9.214;2022-12-18T04:04:58;10.90;;;9.83;;
793;SDS011;380;48.738;9.214;2022-12-18T04:07:26;13.30;;;8.60;;
793;SDS011;380;48.738;9.214;2022-12-18T04:09:53;8.30;;;5.93;;
793;SDS011;380;48.738;9.214;2022-12-18T04:12:23;14.20;;;11.17;;
793;SDS011;380;48.738;9.214;2022-12-18T04:14:50;9.90;;;8.87;;
793;SDS011;380;48.738;9.214;2022-12-18T04:17:16;14.17;;;7.77;;
793;SDS011;380;48.738;9.214;2022-12-18T04:19:42;15.33;;;11.43;;
793;SDS011;380;48.738;9.214;2022-12-18T04:22:09;9.23;;;6.87;;
793;SDS011;380;48.738;9.214;2022-12-18T04:24:35;10.00;;;8.93;;
793;SDS011;380;48.738;9.214;2022-12-18T04:27:01;6.70;;;6.13;;
793;SDS011;380;48.738;9.214;2022-12-18T04:29:27;12.80;;;9.07;;
793;SDS011;380;48.738;9.214;2022-12-18T04:31:53;14.53;;;10.97;;
793;SDS011;380;48.738;9.214;2022-12-18T04:34:19;11.40;;;8.43;;
793;SDS011;380;48.738;9.214;2022-12-18T04:36:45;10.03;;;6.77;;
793;SDS011;380;48.738;9.214;2022-12-18T04:39:11;8.03;;;7.27;;
793;SDS011;380;48.738;9.214;2022-12-18T04:41:38;8.43;;;7.63;;
793;SDS011;380;48.738;9.214;2022-12-18T04:44:04;8.47;;;7.47;;
793;SDS011;380;48.738;9.214;2022-12-18T04:46:29;12.40;;;8.43;;
793;SDS011;380;48.738;9.214;2022-12-18T04:48:56;17.17;;;10.93;;
793;SDS011;380;48.738;9.214;2022-12-18T04:51:21;7.87;;;7.03;;
793;SDS011;380;48.738;9.214;2022-12-18T04:53:47;18.07;;;10.37;;
793;SDS011;380;48.738;9.214;2022-12-18T04:56:14;10.57;;;9.47;;
793;SDS011;380;48.738;9.214;2022-12-18T04:58:41;6.57;;;5.00;;
793;SDS011;380;48.738;9.214;2022-12-18T05:01:08;4.60;;;4.20;;
793;SDS011;380;48.738;9.214;2022-12-18T05:03:34;15.07;;;9.17;;
793;SDS011;380;48.738;9.214;2022-12-18T05:06:01;8.13;;;7.30;;
793;SDS011;380;48.738;9.214;2022-12-18T05:08:27;6.33;;;5.80;;
793;SDS011;380;48.738;9.214;2022-12-18T05:11:00;11.10;;;9.97;;
793;SDS011;380;48.738;9.214;2022-12-18T05:13:26;7.80;;;5.57;;
793;SDS011;380;48.738;9.214;2022-12-18T05:15:52;7.83;;;7.13;;
793;SDS011;380;48.738;9.214;2022-12-18T05:18:18;6.97;;;6.30;;
793;SDS011;380;48.738;9.214;2022-12-18T05:20:44;10.17;;;8.70;;
793;SDS011;380;48.738;9.214;2022-12-18T05:23:10;7.03;;;6.27;;
793;SDS011;380;48.738;9.214;2022-12-18T05:25:36;7.17;;;6.47;;
793;SDS011;380;48.738;9.214;2022-12-18T05:28:02;8.73;;;7.73;;
793;SDS011;380;48.738;9.214;2022-12-18T05:30:28;13.20;;;7.33;;
793;SDS011;380;48.738;9.214;2022-12-18T05:32:54;9.77;;;7.23;;
793;SDS011;380;48.738;9.214;2022-12-18T05:35:21;8.57;;;7.57;;
793;SDS011;380;48.738;9.214;2022-12-18T05:37:47;10.60;;;6.70;;
793;SDS011;380;48.738;9.214;2022-12-18T05:40:13;11.37;;;10.20;;
793;SDS011;380;48.738;9.214;2022-12-18T05:42:39;11.90;;;6.43;;
793;SDS011;380;48.738;9.214;2022-12-18T05:45:05;9.20;;;6.37;;
793;SDS011;380;48.738;9.214;2022-12-18T05:47:31;7.03;;;6.43;;
793;SDS011;380;48.738;9.214;2022-12-18T05:50:06;9.57;;;7.93;;
793;SDS011;380;48.738;9.214;2022-12-18T05:52:32;6.47;;;6.03;;
793;SDS011;380;48.738;9.214;2022-12-18T05:54:58;9.27;;;8.43;;
793;SDS011;380;48.738;9.214;2022-12-18T05:57:24;10.50;;;8.27;;
793;SDS011;380;48.738;9.214;2022-12-18T05:59:51;5.50;;;5.00;;
793;SDS011;380;48.738;9.214;2022-12-18T06:02:17;8.37;;;7.53;;
793;SDS011;380;48.738;9.214;2022-12-18T06:04:42;7.93;;;6.40;;
793;SDS011;380;48.738;9.214;2022-12-18T06:07:08;6.77;;;6.10;;
793;SDS011;380;48.738;9.214;2022-12-18T06:09:34;9.00;;;7.00;;
793;SDS011;380;48.738;9.214;2022-12-18T06:12:00;5.33;;;4.73;;
793;SDS011;380;48.738;9.214;2022-12-18T06:14:26;11.17;;;8.30;;
793;SDS011;380;48.738;9.214;2022-12-18T06:16:52;10.27;;;6.47;;
793;SDS011;380;48.738;9.214;2022-12-18T06:19:18;6.77;;;6.10;;
793;SDS011;380;48.738;9.214;2022-12-18T06:21:44;8.00;;;6.53;;
793;SDS011;380;48.738;9.214;2022-12-18T06:24:10;7.97;;;6.00;;
793;SDS011;380;48.738;9.214;2022-12-18T06:26:37;8.40;;;7.60;;
793;SDS011;380;48.738;9.214;2022-12-18T06:29:04;7.93;;;7.07;;
793;SDS011;380;48.738;9.214;2022-12-18T06:31:30;6.20;;;5.70;;
793;SDS011;380;48.738;9.214;2022-12-18T06:33:56;12.87;;;8.63;;
793;SDS011;380;48.738;9.214;2022-12-18T06:36:22;14.23;;;9.37;;
793;SDS011;380;48.738;9.214;2022-12-18T06:38:48;6.67;;;5.57;;
793;SDS011;380;48.738;9.214;2022-12-18T06:41:16;6.00;;;5.57;;
793;SDS011;380;48.738;9.214;2022-12-18T06:43:42;7.90;;;6.33;;
793;SDS011;380;48.738;9.214;2022-12-18T06:46:08;9.40;;;7.43;;
793;SDS011;380;48.738;9.214;2022-12-18T06:48:35;9.37;;;8.30;;
793;SDS011;380;48.738;9.214;2022-12-18T06:51:01;10.27;;;8.67;;
793;SDS011;380;48.738;9.214;2022-12-18T06:53:27;13.27;;;10.00;;
793;SDS011;380;48.738;9.214;2022-12-18T06:55:59;6.83;;;6.03;;
793;SDS011;380;48.738;9.214;2022-12-18T06:58:25;13.90;;;9.47;;
793;SDS011;380;48.738;9.214;2022-12-18T07:00:51;6.80;;;6.23;;
793;SDS011;380;48.738;9.214;2022-12-18T07:03:17;10.30;;;7.80;;
793;SDS011;380;48.738;9.214;2022-12-18T07:05:43;7.57;;;5.93;;
793;SDS011;380;48.738;9.214;2022-12-18T07:08:09;12.00;;;8.70;;
793;SDS011;380;48.738;9.214;2022-12-18T07:10:42;10.10;;;7.17;;
793;SDS011;380;48.738;9.214;2022-12-18T07:13:08;12.63;;;4.67;;
793;SDS011;380;48.738;9.214;2022-12-18T07:15:33;7.67;;;7.00;;
793;SDS011;380;48.738;9.214;2022-12-18T07:17:59;8.90;;;7.33;;
793;SDS011;380;48.738;9.214;2022-12-18T07:20:25;8.07;;;7.43;;
793;SDS011;380;48.738;9.214;2022-12-18T07:22:51;5.90;;;5.43;;
793;SDS011;380;48.738;9.214;2022-12-18T07:25:17;6.47;;;5.43;;
793;SDS011;380;48.738;9.214;2022-12-18T07:27:43;9.97;;;8.97;;
793;SDS011;380;48.738;9.214;2022-12-18T07:30:09;5.97;;;5.40;;
793;SDS011;380;48.738;9.214;2022-12-18T07:32:35;5.40;;;4.60;;
793;SDS011;380;48.738;9.214;2022-12-18T07:35:01;8.53;;;7.33;;
793;SDS011;380;48.738;9.214;2022-12-18T07:37:27;9.97;;;8.63;;
793;SDS011;380;48.738;9.214;2022-12-18T07:39:53;12.03;;;7.93;;
793;SDS011;380;48.738;9.214;2022-12-18T07:42:19;8.47;;;6.83;;
793;SDS011;380;48.738;9.214;2022-12-18T07:44:58;8.10;;;5.27;;
793;SDS011;380;48.738;9.214;2022-12-18T07:47:25;6.63;;;5.90;;
793;SDS011;380;48.738;9.214;2022-12-18T07:49:51;13.80;;;8.57;;
793;SDS011;380;48.738;9.214;2022-12-18T07:52:17;7.63;;;6.93;;
793;SDS011;380;48.738;9.214;2022-12-18T07:54:43;6.60;;;5.80;;
793;SDS011;380;48.738;9.214;2022-12-18T07:57:09;8.50;;;7.37;;
793;SDS011;380;48.738;9.214;2022-12-18T07:59:35;9.60;;;6.47;;
793;SDS011;380;48.738;9.214;2022-12-18T08:02:01;9.30;;;5.57;;
793;SDS011;380;48.738;9.214;2022-12-18T08:04:27;7.90;;;6.90;;
793;SDS011;380;48.738;9.214;2022-12-18T08:06:53;6.83;;;6.23;;
793;SDS011;380;48.738;9.214;2022-12-18T08:09:19;6.70;;;6.07;;
793;SDS011;380;48.738;9.214;2022-12-18T08:11:45;11.27;;;7.97;;
793;SDS011;380;48.738;9.214;2022-12-18T08:14:11;12.33;;;7.63;;
793;SDS011;380;48.738;9.214;2022-12-18T08:16:37;8.70;;;7.87;;
793;SDS011;380;48.738;9.214;2022-12-18T08:19:02;9.03;;;4.80;;
793;SDS011;380;48.738;9.214;2022-12-18T08:21:29;12.60;;;7.23;;
793;SDS011;380;48.738;9.214;2022-12-18T08:23:56;13.97;;;11.20;;
793;SDS011;380;48.738;9.214;2022-12-18T08:26:23;8.43;;;7.53;;
793;SDS011;380;48.738;9.214;2022-12-18T08:28:49;25.90;;;9.30;;
793;SDS011;380;48.738;9.214;2022-12-18T08:31:16;12.43;;;8.07;;
793;SDS011;380;48.738;9.214;2022-12-18T08:33:41;9.73;;;6.70;;
793;SDS011;380;48.738;9.214;2022-12-18T08:36:08;10.13;;;8.03;;
793;SDS011;380;48.738;9.214;2022-12-18T08:38:34;8.33;;;5.97;;
793;SDS011;380;48.738;9.214;2022-12-18T08:41:00;10.77;;;9.77;;
793;SDS011;380;48.738;9.214;2022-12-18T08:43:27;9.70;;;7.60;;
793;SDS011;380;48.738;9.214;2022-12-18T08:46:12;12.63;;;6.30;;
793;SDS011;380;48.738;9.214;2022-12-18T08:48:38;13.70;;;10.10;;
793;SDS011;380;48.738;9.214;2022-12-18T08:51:04;10.53;;;8.47;;
793;SDS011;380;48.738;9.214;2022-12-18T08:53:30;23.40;;;12.73;;
793;SDS011;380;48.738;9.214;2022-12-18T08:55:56;9.53;;;8.60;;
793;SDS011;380;48.738;9.214;2022-12-18T08:58:22;17.73;;;11.13;;
793;SDS011;380;48.738;9.214;2022-12-18T09:00:48;11.43;;;8.63;;
793;SDS011;380;48.738;9.214;2022-12-18T09:03:15;12.63;;;8.70;;
793;SDS011;380;48.738;9.214;2022-12-18T09:05:41;11.00;;;9.90;;
793;SDS011;380;48.738;9.214;2022-12-18T09:08:07;8.80;;;8.03;;
793;SDS011;380;48.738;9.214;2022-12-18T09:10:33;16.57;;;11.27;;
793;SDS011;380;48.738;9.214;2022-12-18T09:12:59;18.00;;;9.60;;
793;SDS011;380;48.738;9.214;2022-12-18T09:15:25;23.10;;;10.13;;
793;SDS011;380;48.738;9.214;2022-12-18T09:17:51;10.33;;;9.27;;
793;SDS011;380;48.738;9.214;2022-12-18T09:20:18;10.90;;;9.90;;
793;SDS011;380;48.738;9.214;2022-12-18T09:22:44;10.90;;;9.80;;
793;SDS011;380;48.738;9.214;2022-12-18T09:25:10;13.60;;;7.43;;
793;SDS011;380;48.738;9.214;2022-12-18T09:27:36;13.30;;;11.00;;
793;SDS011;380;48.738;9.214;2022-12-18T09:30:02;22.87;;;12.27;;
793;SDS011;380;48.738;9.214;2022-12-18T09:32:28;17.40;;;12.13;;
793;SDS011;380;48.738;9.214;2022-12-18T09:34:54;10.87;;;9.63;;
793;SDS011;380;48.738;9.214;2022-12-18T09:37:20;17.50;;;12.60;;
793;SDS011;380;48.738;9.214;2022-12-18T09:39:46;10.97;;;7.80;;
793;SDS011;380;48.738;9.214;2022-12-18T09:42:18;25.20;;;10.50;;
793;SDS011;380;48.738;9.214;2022-12-18T09:44:47;13.67;;;8.83;;
793;SDS011;380;48.738;9.214;2022-12-18T09:47:18;16.30;;;12.40;;
793;SDS011;380;48.738;9.214;2022-12-18T09:49:46;9.23;;;8.52;;
793;SDS011;380;48.738;9.214;2022-12-18T09:54:39;16.27;;;12.77;;
793;SDS011;380;48.738;9.214;2022-12-18T09:57:05;11.30;;;8.37;;
793;SDS011;380;48.738;9.214;2022-12-18T09:59:34;11.43;;;9.63;;
793;SDS011;380;48.738;9.214;2022-12-18T10:02:11;9.37;;;7.20;;
793;SDS011;380;48.738;9.214;2022-12-18T10:04:37;10.83;;;9.50;;
793;SDS011;380;48.738;9.214;2022-12-18T10:07:07;17.90;;;12.83;;
793;SDS011;380;48.738;9.214;2022-12-18T10:09:41;12.33;;;10.70;;
793;SDS011;380;48.738;9.214;2022-12-18T10:14:57;9.93;;;7.07;;
793;SDS011;380;48.738;9.214;2022-12-18T10:17:31;14.23;;;9.03;;
793;SDS011;380;48.738;9.214;2022-12-18T10:20:10;19.40;;;13.23;;
793;SDS011;380;48.738;9.214;2022-12-18T10:22:43;14.50;;;11.23;;
793;SDS011;380;48.738;9.214;2022-12-18T10:25:34;13.90;;;12.33;;
793;SDS011;380;48.738;9.214;2022-12-18T10:28:00;11.83;;;9.63;;
793;SDS011;380;48.738;9.214;2022-12-18T10:30:32;28.77;;;13.13;;
793;SDS011;380;48.738;9.214;2022-12-18T10:33:02;13.33;;;9.60;;
793;SDS011;380;48.738;9.214;2022-12-18T10:35:28;8.07;;;7.47;;
793;SDS011;380;48.738;9.214;2022-12-18T10:43:14;12.90;;;11.67;;
793;SDS011;380;48.738;9.214;2022-12-18T10:45:41;12.90;;;10.47;;
793;SDS011;380;48.738;9.214;2022-12-18T10:48:27;13.23;;;7.40;;
793;SDS011;380;48.738;9.214;2022-12-18T10:50:54;11.33;;;9.67;;
793;SDS011;380;48.738;9.214;2022-12-18T10:53:23;11.73;;;10.53;;
793;SDS011;380;48.738;9.214;2022-12-18T10:55:50;16.40;;;13.90;;
793;SDS011;380;48.738;9.214;2022-12-18T11:03:29;13.40;;;10.43;;
793;SDS011;380;48.738;9.214;2022-12-18T11:08:30;21.20;;;14.10;;
793;SDS011;380;48.738;9.214;2022-12-18T11:10:56;14.77;;;13.10;;
793;SDS011;380;48.738;9.214;2022-12-18T11:13:23;16.10;;;14.57;;
793;SDS011;380;48.738;9.214;2022-12-18T11:15:50;15.77;;;12.33;;
793;SDS011;380;48.738;9.214;2022-12-18T11:18:22;15.47;;;12.73;;
793;SDS011;380;48.738;9.214;2022-12-18T11:20:52;19.33;;;13.57;;
793;SDS011;380;48.738;9.214;2022-12-18T11:23:18;14.90;;;13.45;;
793;SDS011;380;48.738;9.214;2022-12-18T11:25:58;18.13;;;10.53;;
793;SDS011;380;48.738;9.214;2022-12-18T11:28:40;15.00;;;11.93;;
793;SDS011;380;48.738;9.214;2022-12-18T11:33:36;10.83;;;8.73;;
793;SDS011;380;48.738;9.214;2022-12-18T11:36:03;15.70;;;10.47;;
793;SDS011;380;48.738;9.214;2022-12-18T11:38:34;15.30;;;12.33;;
793;SDS011;380;48.738;9.214;2022-12-18T11:41:36;18.27;;;14.67;;
793;SDS011;380;48.738;9.214;2022-12-18T11:44:24;12.87;;;9.23;;
793;SDS011;380;48.738;9.214;2022-12-18T11:46:51;21.00;;;15.97;;
793;SDS011;380;48.738;9.214;2022-12-18T11:49:20;25.50;;;13.90;;
793;SDS011;380;48.738;9.214;2022-12-18T11:54:23;16.90;;;10.10;;
793;SDS011;380;48.738;9.214;2022-12-18T11:56:56;16.13;;;9.37;;
793;SDS011;380;48.738;9.214;2022-12-18T11:59:49;16.50;;;13.63;;
793;SDS011;380;48.738;9.214;2022-12-18T12:02:28;11.07;;;10.20;;
793;SDS011;380;48.738;9.214;2022-12-18T12:09:57;15.40;;;11.97;;
793;SDS011;380;48.738;9.214;2022-12-18T12:12:30;27.27;;;12.87;;
793;SDS011;380;48.738;9.214;2022-12-18T12:15:17;11.93;;;10.67;;
793;SDS011;380;48.738;9.214;2022-12-18T12:31:06;12.50;;;10.80;;
793;SDS011;380;48.738;9.214;2022-12-18T12:38:43;22.20;;;12.43;;
793;SDS011;380;48.738;9.214;2022-12-18T12:41:12;18.20;;;11.23;;
793;SDS011;380;48.738;9.214;2022-12-18T12:43:58;19.43;;;12.87;;
793;SDS011;380;48.738;9.214;2022-12-18T12:46:26;18.77;;;12.20;;
793;SDS011;380;48.738;9.214;2022-12-18T12:48:53;14.53;;;12.97;;
793;SDS011;380;48.738;9.214;2022-12-18T12:51:22;18.47;;;15.97;;
793;SDS011;380;48.738;9.214;2022-12-18T12:53:48;20.50;;;16.90;;
793;SDS011;380;48.738;9.214;2022-12-18T12:56:16;17.47;;;12.57;;
793;SDS011;380;48.738;9.214;2022-12-18T12:58:47;14.47;;;11.00;;
793;SDS011;380;48.738;9.214;2022-12-18T13:04:00;17.33;;;12.67;;
793;SDS011;380;48.738;9.214;2022-12-18T13:06:41;12.40;;;11.20;;
793;SDS011;380;48.738;9.214;2022-12-18T13:09:09;12.50;;;11.23;;
793;SDS011;380;48.738;9.214;2022-12-18T13:11:47;22.57;;;12.87;;
793;SDS011;380;48.738;9.214;2022-12-18T13:14:36;13.60;;;12.23;;
793;SDS011;380;48.738;9.214;2022-12-18T13:17:24;20.00;;;11.73;;
793;SDS011;380;48.738;9.214;2022-12-18T13:20:12;16.53;;;11.53;;
793;SDS011;380;48.738;9.214;2022-12-18T13:22:46;15.97;;;13.30;;
793;SDS011;380;48.738;9.214;2022-12-18T13:25:32;23.77;;;12.73;;
793;SDS011;380;48.738;9.214;2022-12-18T13:38:45;20.90;;;15.37;;
793;SDS011;380;48.738;9.214;2022-12-18T13:41:07;20.23;;;10.93;;
793;SDS011;380;48.738;9.214;2022-12-18T13:43:47;24.90;;;15.90;;
793;SDS011;380;48.738;9.214;2022-12-18T13:46:18;19.23;;;14.00;;
793;SDS011;380;48.738;9.214;2022-12-18T13:48:49;23.37;;;17.00;;
793;SDS011;380;48.738;9.214;2022-12-18T13:51:16;21.23;;;15.00;;
793;SDS011;380;48.738;9.214;2022-12-18T13:53:44;22.23;;;14.07;;
793;SDS011;380;48.738;9.214;2022-12-18T13:56:18;25.00;;;14.63;;
793;SDS011;380;48.738;9.214;2022-12-18T13:59:02;20.40;;;15.90;;
793;SDS011;380;48.738;9.214;2022-12-18T14:01:28;20.27;;;14.83;;
793;SDS011;380;48.738;9.214;2022-12-18T14:06:40;22.77;;;15.90;;
793;SDS011;380;48.738;9.214;2022-12-18T14:09:09;19.67;;;15.93;;
793;SDS011;380;48.738;9.214;2022-12-18T14:11:36;22.17;;;18.33;;
793;SDS011;380;48.738;9.214;2022-12-18T14:14:02;17.17;;;14.03;;
793;SDS011;380;48.738;9.214;2022-12-18T14:16:32;26.20;;;12.73;;
793;SDS011;380;48.738;9.214;2022-12-18T14:18:58;17.53;;;14.03;;
793;SDS011;380;48.738;9.214;2022-12-18T14:21:28;21.40;;;14.67;;
793;SDS011;380;48.738;9.214;2022-12-18T14:24:04;29.58;;;17.75;;
793;SDS011;380;48.738;9.214;2022-12-18T14:26:31;12.23;;;10.67;;
793;SDS011;380;48.738;9.214;2022-12-18T14:28:59;16.70;;;14.23;;
793;SDS011;380;48.738;9.214;2022-12-18T14:31:29;22.65;;;17.25;;
793;SDS011;380;48.738;9.214;2022-12-18T14:33:55;20.13;;;15.90;;
793;SDS011;380;48.738;9.214;2022-12-18T14:36:25;29.37;;;16.17;;
793;SDS011;380;48.738;9.214;2022-12-18T14:38:55;18.52;;;13.30;;
793;SDS011;380;48.738;9.214;2022-12-18T14:41:21;22.17;;;18.63;;
793;SDS011;380;48.738;9.214;2022-12-18T14:43:48;17.00;;;14.43;;
793;SDS011;380;48.738;9.214;2022-12-18T14:46:32;23.50;;;13.97;;
793;SDS011;380;48.738;9.214;2022-12-18T14:49:03;30.77;;;14.90;;
793;SDS011;380;48.738;9.214;2022-12-18T14:51:31;17.35;;;14.20;;
793;SDS011;380;48.738;9.214;2022-12-18T14:53:58;23.10;;;13.53;;
793;SDS011;380;48.738;9.214;2022-12-18T14:59:01;15.73;;;12.40;;
793;SDS011;380;48.738;9.214;2022-12-18T15:03:54;20.17;;;14.03;;
793;SDS011;380;48.738;9.214;2022-12-18T15:06:28;21.40;;;16.17;;
793;SDS011;380;48.738;9.214;2022-12-18T15:08:55;25.20;;;14.90;;
793;SDS011;380;48.738;9.214;2022-12-18T15:14:03;26.90;;;17.80;;
793;SDS011;380;48.738;9.214;2022-12-18T15:16:50;18.67;;;13.97;;
793;SDS011;380;48.738;9.214;2022-12-18T15:19:16;14.27;;;12.80;;
793;SDS011;380;48.738;9.214;2022-12-18T15:21:42;21.23;;;15.13;;
793;SDS011;380;48.738;9.214;2022-12-18T15:24:15;29.33;;;17.30;;
793;SDS011;380;48.738;9.214;2022-12-18T15:26:42;26.03;;;16.97;;
793;SDS011;380;48.738;9.214;2022-12-18T15:29:15;19.07;;;14.03;;
793;SDS011;380;48.738;9.214;2022-12-18T15:31:44;21.30;;;14.57;;
793;SDS011;380;48.738;9.214;2022-12-18T15:34:23;17.67;;;13.03;;
793;SDS011;380;48.738;9.214;2022-12-18T15:36:50;27.47;;;16.30;;
793;SDS011;380;48.738;9.214;2022-12-18T15:39:16;29.90;;;19.73;;
793;SDS011;380;48.738;9.214;2022-12-18T15:41:42;20.63;;;18.30;;
793;SDS011;380;48.738;9.214;2022-12-18T15:44:28;21.03;;;16.17;;
793;SDS011;380;48.738;9.214;2022-12-18T15:46:54;14.33;;;12.93;;
793;SDS011;380;48.738;9.214;2022-12-18T15:49:20;27.03;;;18.47;;
793;SDS011;380;48.738;9.214;2022-12-18T15:51:47;29.57;;;17.13;;
793;SDS011;380;48.738;9.214;2022-12-18T15:54:15;20.27;;;16.37;;
793;SDS011;380;48.738;9.214;2022-12-18T15:56:41;20.60;;;16.07;;
793;SDS011;380;48.738;9.214;2022-12-18T15:59:25;21.57;;;18.10;;
793;SDS011;380;48.738;9.214;2022-12-18T16:01:51;28.70;;;24.40;;
793;SDS011;380;48.738;9.214;2022-12-18T16:04:18;48.17;;;29.53;;
793;SDS011;380;48.738;9.214;2022-12-18T16:06:48;34.78;;;21.63;;
793;SDS011;380;48.738;9.214;2022-12-18T16:09:14;28.63;;;17.87;;
793;SDS011;380;48.738;9.214;2022-12-18T16:11:42;27.90;;;21.80;;
793;SDS011;380;48.738;9.214;2022-12-18T16:14:19;27.80;;;19.27;;
793;SDS011;380;48.738;9.214;2022-12-18T16:16:45;20.50;;;16.50;;
793;SDS011;380;48.738;9.214;2022-12-18T16:19:12;25.70;;;19.70;;
793;SDS011;380;48.738;9.214;2022-12-18T16:21:38;24.53;;;18.67;;
793;SDS011;380;48.738;9.214;2022-12-18T16:24:04;22.80;;;13.70;;
793;SDS011;380;48.738;9.214;2022-12-18T16:26:30;19.47;;;13.60;;
793;SDS011;380;48.738;9.214;2022-12-18T16:28:56;18.93;;;17.03;;
793;SDS011;380;48.738;9.214;2022-12-18T16:31:22;21.43;;;15.97;;
793;SDS011;380;48.738;9.214;2022-12-18T16:33:48;19.07;;;14.60;;
793;SDS011;380;48.738;9.214;2022-12-18T16:36:14;17.10;;;12.43;;
793;SDS011;380;48.738;9.214;2022-12-18T16:38:40;18.27;;;15.17;;
793;SDS011;380;48.738;9.214;2022-12-18T16:41:15;53.70;;;34.37;;
793;SDS011;380;48.738;9.214;2022-12-18T16:43:58;20.33;;;15.27;;
793;SDS011;380;48.738;9.214;2022-12-18T16:46:24;25.83;;;16.13;;
793;SDS011;380;48.738;9.214;2022-12-18T16:48:50;21.20;;;18.63;;
793;SDS011;380;48.738;9.214;2022-12-18T16:51:16;16.83;;;15.00;;
793;SDS011;380;48.738;9.214;2022-12-18T16:53:42;19.03;;;15.17;;
793;SDS011;380;48.738;9.214;2022-12-18T16:56:08;22.07;;;13.57;;
793;SDS011;380;48.738;9.214;2022-12-18T16:58:34;17.27;;;14.63;;
793;SDS011;380;48.738;9.214;2022-12-18T17:01:00;21.50;;;13.47;;
793;SDS011;380;48.738;9.214;2022-12-18T17:03:26;21.67;;;16.23;;
793;SDS011;380;48.738;9.214;2022-12-18T17:05:52;22.93;;;16.90;;
793;SDS011;380;48.738;9.214;2022-12-18T17:08:18;17.27;;;14.07;;
793;SDS011;380;48.738;9.214;2022-12-18T17:10:44;25.93;;;16.73;;
793;SDS011;380;48.738;9.214;2022-12-18T17:13:09;34.87;;;17.37;;
793;SDS011;380;48.738;9.214;2022-12-18T17:15:36;22.40;;;15.87;;
793;SDS011;380;48.738;9.214;2022-12-18T17:18:02;20.67;;;10.83;;
793;SDS011;380;48.738;9.214;2022-12-18T17:20:31;27.27;;;20.30;;
793;SDS011;380;48.738;9.214;2022-12-18T17:22:57;24.20;;;16.83;;
793;SDS011;380;48.738;9.214;2022-12-18T17:25:23;18.13;;;15.10;;
793;SDS011;380;48.738;9.214;2022-12-18T17:27:49;16.07;;;14.17;;
793;SDS011;380;48.738;9.214;2022-12-18T17:30:16;16.80;;;15.03;;